الصفحة الرئيسية
METAR-TAF:

METAR-TAF

مطار :

Fairbanks, ألاسكا, الولايات المتحدة

دائرة عرض: 64-48-14N, خط طول: 147-52-34W, ارتفاع: 132 متر

مراقبة الطقس الحالي

تاريخ ووقت الإصدار 36 دقيقة قبل الساعة 12:53UTC
رياح هادئة
درجة الحرارة 11°درجة مئوية
الرطوبة 87%
ضغط 1015 hPa
الرؤية: 16.1 كم
غيوم مفككة على ارتفاع 8000 قدم
غيوم مفككة على ارتفاع 9500 قدم

METAR: PAFA 301253Z 00000KT 10SM BKN080 BKN095 11/09 A2996 RMK AO2 SLP148 T01060089

زمن: 05:29 (13:29 UTC)

توقعات

تاريخ ووقت الإصدار 1ساعة و 57 دقيقة قبل الساعة 11:32UTC
التوقعات صالحة من30 الساعة 12 UTC إلى 31 الساعة 18 UTC
ريح 5 عقدةمن اتجاهات متغيرة
الرؤية: 10 كم
غيوم مفككة على ارتفاع 6000 قدم
غيوم مفككة على ارتفاع 10000 قدم
من 30 الساعة 1900 UTC
ريح 2 عقدة من الجنوب
الرؤية: 10 كم
غيوم مفككة على ارتفاع 5000 قدم
زخات في الجوار
من 31 الساعة 0700 UTC
ريح 3 عقدة من الشمال/الشمال الغربي
الرؤية: 10 كم
غيوم متفرقة على ارتفاع 7000 قدم

TAF: PAFA 301132Z 3012/3118 VRB05KT P6SM BKN060 BKN100 FM301900 18002KT P6SM VCSH BKN050 FM310700 33003KT P6SM SCT070

أرصاد الطقس والتوقعات من أكثر من 4000 مطار (تقارير الطقس للمطار METAR والتنبؤ بالطقس بالمطارTAF).

المحطات المتاحة هي النقط الصفراء والحمراء على الخريطة.

حرك المؤشر فوق النقطة لمعرفة اسم المحطة.

ثم انقر لمعرفة أرصاد وتوقعات الطقس.

لتغيير الخارطة: اضغط على الأزرار الخضراء مع رمز الصليب الأسود للتكبير. على الزر الأخضر مع شرطة للتصغير، أو على الأسهم الخضراء للخرائط المجاورة.


METAR-TAF: